Joliet, Texas
Current Conditions -  °F | °C
As of 4:35 AM on Monday 22 Dec 2014 (Local Time) from KHYI Reporting Station
Overcast Overcast  
Wind Chill: 55°   Ceiling: 2100
Heat Index: 55°   Visibility: 8mi
Dew Point: 54°   Wind: 14mph
Humidity: 94%   Direction: 230°SW
Pressure: 29.76"   Gusts: NA
Location:  29.6952°N, 97.6509°W
Report Text: KHYI 221035Z 23012KT 8SM FEW005 OVC021 13/12 A2976 RMK AO1
Loading
Personal Weather Stations






























Interactive Weather Map New forecast layout! Learn more

10-Day Weather Forecast

Advertisements
Track Severe Weather on mobile